createdAt,value
2018-05-21T00:02:18.449Z,2.23
2018-05-21T00:04:47.300Z,2.80
2018-05-21T00:07:15.862Z,2.97
2018-05-21T00:09:44.763Z,2.40
2018-05-21T00:12:14.337Z,2.73
2018-05-21T00:14:44.254Z,2.50
2018-05-21T00:17:13.490Z,2.70
2018-05-21T00:19:42.513Z,2.80
2018-05-21T00:22:11.729Z,2.70
2018-05-21T00:24:40.439Z,2.33
2018-05-21T00:27:09.979Z,2.50
2018-05-21T00:29:39.508Z,2.97
2018-05-21T00:32:08.230Z,2.37
2018-05-21T00:34:36.815Z,2.47
2018-05-21T00:37:05.446Z,2.50
2018-05-21T00:39:34.571Z,3.00
2018-05-21T00:42:04.258Z,3.10
2018-05-21T00:44:34.575Z,2.37
2018-05-21T00:47:04.377Z,2.20
2018-05-21T00:49:34.135Z,3.03
2018-05-21T00:52:03.527Z,2.60
2018-05-21T00:54:33.039Z,3.10
2018-05-21T00:57:02.720Z,3.20
2018-05-21T00:59:32.050Z,2.30
2018-05-21T01:02:01.437Z,2.77
2018-05-21T01:04:31.526Z,3.47
2018-05-21T01:07:01.629Z,2.90
2018-05-21T01:09:33.279Z,3.00
2018-05-21T01:12:02.212Z,2.93
2018-05-21T01:14:31.324Z,3.43
2018-05-21T01:17:01.370Z,3.20
2018-05-21T01:19:31.869Z,3.80
2018-05-21T01:22:02.062Z,2.87
2018-05-21T01:24:31.536Z,3.30
2018-05-21T01:27:01.086Z,3.60
2018-05-21T01:29:30.512Z,3.53
2018-05-21T01:31:59.951Z,2.73
2018-05-21T01:34:28.982Z,3.30
2018-05-21T01:36:58.615Z,2.93
2018-05-21T01:39:29.352Z,3.37
2018-05-21T01:41:59.759Z,2.90
2018-05-21T01:44:28.613Z,3.30
2018-05-21T01:46:58.460Z,3.40
2018-05-21T01:49:28.129Z,2.70
2018-05-21T01:51:57.037Z,3.77
2018-05-21T01:54:27.141Z,3.40
2018-05-21T01:56:56.026Z,3.43
2018-05-21T01:59:26.606Z,4.17
2018-05-21T02:01:56.213Z,2.87
2018-05-21T02:04:26.085Z,3.47
2018-05-21T02:06:56.478Z,3.40
2018-05-21T02:09:26.262Z,3.67
2018-05-21T02:11:55.490Z,3.33
2018-05-21T02:14:26.516Z,3.47
2018-05-21T02:16:55.896Z,3.70
2018-05-21T02:19:25.280Z,3.90
2018-05-21T02:21:54.948Z,3.93
2018-05-21T02:24:25.865Z,4.10
2018-05-21T02:26:57.071Z,3.80
2018-05-21T02:29:26.617Z,3.67
2018-05-21T02:31:55.653Z,3.57
2018-05-21T02:34:25.779Z,4.00
2018-05-21T02:36:54.988Z,3.97
2018-05-21T02:39:24.729Z,4.40
2018-05-21T02:41:54.775Z,3.87
2018-05-21T02:44:24.869Z,3.80
2018-05-21T02:46:53.585Z,4.13
2018-05-21T02:49:22.430Z,3.93
2018-05-21T02:51:51.041Z,4.50
2018-05-21T02:54:20.323Z,5.23
2018-05-21T02:56:49.434Z,5.10
2018-05-21T02:59:19.878Z,5.47
2018-05-21T03:01:48.960Z,4.73
2018-05-21T03:04:18.467Z,4.50
2018-05-21T03:06:47.350Z,4.83
2018-05-21T03:09:18.206Z,4.90
2018-05-21T03:11:47.534Z,4.97
2018-05-21T03:14:16.428Z,4.33
2018-05-21T03:16:44.788Z,6.13
2018-05-21T03:19:13.181Z,5.40
2018-05-21T03:21:41.653Z,5.17
2018-05-21T03:24:10.000Z,5.17
2018-05-21T03:26:39.291Z,5.17
2018-05-21T03:29:07.729Z,4.93
2018-05-21T03:31:36.159Z,5.10
2018-05-21T03:34:04.566Z,5.03
2018-05-21T03:36:33.917Z,5.53
2018-05-21T03:39:02.251Z,4.60
2018-05-21T03:41:30.607Z,5.37
2018-05-21T03:43:59.051Z,4.90
2018-05-21T03:46:27.483Z,5.10
2018-05-21T03:48:55.846Z,5.40
2018-05-21T03:51:25.164Z,6.03
2018-05-21T03:53:53.499Z,5.17
2018-05-21T03:56:21.892Z,4.60
2018-05-21T03:59:02.195Z,5.40
2018-05-21T04:04:33.526Z,4.70
2018-05-21T04:07:01.852Z,5.37
2018-05-21T04:09:30.270Z,5.10
2018-05-21T04:11:58.671Z,5.37
2018-05-21T04:14:27.055Z,5.50
2018-05-21T04:16:55.517Z,5.23
2018-05-21T04:19:23.861Z,6.17
2018-05-21T04:21:52.416Z,5.40
2018-05-21T04:24:20.766Z,5.50
2018-05-21T04:26:49.127Z,5.53
2018-05-21T04:29:17.667Z,6.50
2018-05-21T04:31:46.110Z,5.47
2018-05-21T04:34:14.488Z,5.30
2018-05-21T04:36:42.885Z,5.77
2018-05-21T04:39:11.257Z,5.80
2018-05-21T04:41:39.602Z,5.87
2018-05-21T04:44:08.038Z,6.10
2018-05-21T04:46:36.411Z,5.73
2018-05-21T04:49:04.781Z,6.40
2018-05-21T04:51:33.143Z,5.80
2018-05-21T04:54:01.584Z,5.97
2018-05-21T04:56:30.026Z,6.17
2018-05-21T04:58:58.461Z,6.50
2018-05-21T05:01:26.946Z,5.60
2018-05-21T05:03:55.320Z,6.13
2018-05-21T05:06:23.785Z,5.90
2018-05-21T05:08:52.186Z,6.50
2018-05-21T05:11:21.473Z,6.53
2018-05-21T05:13:49.912Z,6.63
2018-05-21T05:16:18.357Z,6.10
2018-05-21T05:18:46.815Z,6.20
2018-05-21T05:21:15.174Z,6.60
2018-05-21T05:23:43.610Z,6.57
2018-05-21T05:26:12.038Z,6.70
2018-05-21T05:28:40.402Z,6.50
2018-05-21T05:31:08.815Z,5.80
2018-05-21T05:33:37.219Z,5.63
2018-05-21T05:36:05.621Z,6.40
2018-05-21T05:38:33.976Z,5.80
2018-05-21T05:41:03.349Z,6.27
2018-05-21T05:43:31.738Z,5.13
2018-05-21T05:46:00.152Z,5.13
2018-05-21T05:48:28.496Z,5.37
2018-05-21T05:50:56.950Z,5.60
2018-05-21T05:53:25.428Z,5.17
2018-05-21T05:55:53.790Z,5.43
2018-05-21T05:58:22.141Z,5.43
2018-05-21T06:00:50.506Z,5.40
2018-05-21T06:03:18.994Z,6.90
2018-05-21T06:05:47.385Z,5.53
2018-05-21T06:08:15.771Z,6.10
2018-05-21T06:10:44.109Z,5.30
2018-05-21T06:13:12.478Z,5.50
2018-05-21T06:15:40.956Z,5.83
2018-05-21T06:18:09.383Z,7.27
2018-05-21T06:20:37.785Z,7.10
2018-05-21T06:23:06.193Z,5.50
2018-05-21T06:25:34.603Z,6.00
2018-05-21T06:28:03.037Z,6.07
2018-05-21T06:30:31.524Z,6.20
2018-05-21T06:32:59.929Z,5.73
2018-05-21T06:35:28.278Z,6.23
2018-05-21T06:37:56.631Z,6.43
2018-05-21T06:40:25.126Z,6.40
2018-05-21T06:42:53.540Z,6.10
2018-05-21T06:45:21.946Z,5.73
2018-05-21T06:47:50.459Z,6.30
2018-05-21T06:50:18.969Z,5.73
2018-05-21T06:52:47.373Z,5.63
2018-05-21T06:55:15.965Z,6.07
2018-05-21T06:57:44.390Z,6.10
2018-05-21T07:00:12.821Z,6.23
2018-05-21T07:02:41.261Z,6.23
2018-05-21T07:05:09.797Z,6.50
2018-05-21T07:07:38.187Z,5.97
2018-05-21T07:10:06.856Z,6.50
2018-05-21T07:12:35.233Z,6.13
2018-05-21T07:15:03.606Z,6.30
2018-05-21T07:17:32.159Z,5.83
2018-05-21T07:20:00.571Z,5.40
2018-05-21T07:22:28.968Z,4.80
2018-05-21T07:24:57.365Z,5.70
2018-05-21T07:27:25.936Z,6.00
2018-05-21T07:29:54.445Z,5.77
2018-05-21T07:32:22.914Z,5.63
2018-05-21T07:34:51.331Z,5.37
2018-05-21T07:37:20.018Z,5.83
2018-05-21T07:39:48.440Z,5.17
2018-05-21T07:42:16.857Z,5.40
2018-05-21T07:44:45.301Z,6.07
2018-05-21T07:47:13.722Z,5.90
2018-05-21T07:49:42.196Z,5.70
2018-05-21T07:52:10.675Z,6.00
2018-05-21T07:54:39.096Z,5.73
2018-05-21T07:57:07.526Z,5.80
2018-05-21T07:59:35.991Z,5.37
2018-05-21T08:02:04.375Z,6.77
2018-05-21T08:04:32.816Z,5.80
2018-05-21T08:07:01.291Z,6.67
2018-05-21T08:09:29.961Z,6.47
2018-05-21T08:11:58.559Z,5.77
2018-05-21T08:14:27.972Z,6.10
2018-05-21T08:16:56.278Z,5.73
2018-05-21T08:19:24.751Z,5.63
2018-05-21T08:21:53.160Z,5.40
2018-05-21T08:24:21.591Z,5.40
2018-05-21T08:26:50.059Z,5.40
2018-05-21T08:29:18.531Z,5.30
2018-05-21T08:31:47.124Z,5.10
2018-05-21T08:34:15.499Z,5.47
2018-05-21T08:36:43.992Z,6.10
2018-05-21T08:39:12.461Z,5.80
2018-05-21T08:41:40.914Z,5.20
2018-05-21T08:44:09.375Z,5.80
2018-05-21T08:46:37.785Z,6.00
2018-05-21T08:49:06.164Z,5.27
2018-05-21T08:51:34.659Z,5.50
2018-05-21T08:54:03.209Z,5.17
2018-05-21T08:56:31.668Z,5.00
2018-05-21T08:59:00.199Z,5.53
2018-05-21T09:01:28.649Z,5.40
2018-05-21T09:03:57.199Z,5.43
2018-05-21T09:06:25.764Z,5.93
2018-05-21T09:08:54.218Z,6.27
2018-05-21T09:11:22.597Z,6.00
2018-05-21T09:13:58.262Z,5.70
2018-05-21T09:16:26.761Z,5.63
2018-05-21T09:18:55.099Z,5.40
2018-05-21T09:21:23.490Z,4.70
2018-05-21T09:23:51.850Z,4.63
2018-05-21T09:26:20.219Z,5.03
2018-05-21T09:28:48.743Z,4.30
2018-05-21T09:31:17.278Z,4.17
2018-05-21T09:33:46.493Z,4.37
2018-05-21T09:36:14.871Z,4.57
2018-05-21T09:38:43.246Z,4.67
2018-05-21T09:41:11.649Z,4.37
2018-05-21T09:43:40.023Z,4.73
2018-05-21T09:46:08.407Z,3.90
2018-05-21T09:48:36.839Z,3.90
2018-05-21T09:51:05.202Z,3.83
2018-05-21T09:53:33.552Z,4.13
2018-05-21T09:56:01.925Z,4.17
2018-05-21T09:58:30.292Z,4.33
2018-05-21T10:00:58.664Z,3.80
2018-05-21T10:03:34.192Z,3.40
2018-05-21T10:06:02.569Z,4.40
2018-05-21T10:08:30.998Z,4.00
2018-05-21T10:10:59.346Z,4.90
2018-05-21T10:13:27.692Z,4.03
2018-05-21T10:15:56.104Z,4.10
2018-05-21T10:18:24.516Z,4.70
2018-05-21T10:20:52.960Z,3.77
2018-05-21T10:23:21.424Z,4.23
2018-05-21T10:25:49.775Z,4.17
2018-05-21T10:28:18.225Z,4.20
2018-05-21T10:30:46.568Z,3.63
2018-05-21T10:33:14.981Z,3.60
2018-05-21T10:35:43.329Z,3.77
2018-05-21T10:38:11.748Z,3.40
2018-05-21T10:40:40.145Z,4.00
2018-05-21T10:43:09.427Z,3.77
2018-05-21T10:45:37.858Z,3.77
2018-05-21T10:48:07.202Z,3.90
2018-05-21T10:50:35.577Z,3.33
2018-05-21T10:53:03.993Z,3.87
2018-05-21T10:55:32.560Z,3.37
2018-05-21T10:58:00.995Z,3.77
2018-05-21T11:00:29.379Z,4.07
2018-05-21T11:02:57.808Z,3.90
2018-05-21T11:05:26.167Z,4.53
2018-05-21T11:07:54.521Z,3.73
2018-05-21T11:10:22.964Z,4.27
2018-05-21T11:12:51.351Z,3.57
2018-05-21T11:15:19.754Z,3.77
2018-05-21T11:17:48.210Z,4.10
2018-05-21T11:20:16.714Z,4.20
2018-05-21T11:22:45.088Z,3.83
2018-05-21T11:25:13.529Z,4.20
2018-05-21T11:27:41.874Z,4.10
2018-05-21T11:30:10.235Z,3.83
2018-05-21T11:32:38.794Z,4.63
2018-05-21T11:35:07.161Z,3.80
2018-05-21T11:37:35.724Z,4.00
2018-05-21T11:40:04.156Z,4.33
2018-05-21T11:42:32.548Z,4.50
2018-05-21T11:45:01.038Z,3.57
2018-05-21T11:47:29.439Z,4.20
2018-05-21T11:49:57.824Z,5.83
2018-05-21T11:52:26.263Z,4.13
2018-05-21T11:54:54.775Z,3.43
2018-05-21T11:57:23.313Z,3.77
2018-05-21T11:59:52.761Z,4.53
2018-05-21T12:02:21.275Z,4.03
2018-05-21T12:04:49.710Z,3.40
2018-05-21T12:07:18.169Z,4.30
2018-05-21T12:09:46.854Z,3.93
2018-05-21T12:12:15.256Z,3.60
2018-05-21T12:14:43.668Z,3.80
2018-05-21T12:17:12.280Z,4.07
2018-05-21T12:19:40.713Z,3.67
2018-05-21T12:22:09.444Z,4.20
2018-05-21T12:24:37.926Z,4.20
2018-05-21T12:27:06.409Z,4.00
2018-05-21T12:29:34.965Z,3.63
2018-05-21T12:32:03.476Z,3.97
2018-05-21T12:34:32.001Z,3.90
2018-05-21T12:37:00.417Z,3.70
2018-05-21T12:39:28.950Z,3.73
2018-05-21T12:41:57.409Z,3.70
2018-05-21T12:44:25.882Z,3.93
2018-05-21T12:46:54.400Z,3.50
2018-05-21T12:49:22.852Z,3.60
2018-05-21T12:51:51.312Z,3.80
2018-05-21T12:54:19.715Z,4.00
2018-05-21T12:56:48.225Z,3.50
2018-05-21T12:59:16.695Z,4.10
2018-05-21T13:01:45.134Z,3.70
2018-05-21T13:04:13.539Z,4.57
2018-05-21T13:06:42.051Z,3.60
2018-05-21T13:09:10.464Z,3.97
2018-05-21T13:11:38.944Z,3.97
2018-05-21T13:14:07.359Z,4.20
2018-05-21T13:16:35.976Z,3.50
2018-05-21T13:19:04.405Z,4.03
2018-05-21T13:21:32.805Z,4.20
2018-05-21T13:24:01.404Z,4.17
2018-05-21T13:26:29.787Z,4.13
2018-05-21T13:28:58.225Z,4.20
2018-05-21T13:31:26.761Z,4.57
2018-05-21T13:33:55.289Z,4.13
2018-05-21T13:36:23.757Z,3.53
2018-05-21T13:38:52.202Z,4.40
2018-05-21T13:41:20.663Z,4.47
2018-05-21T13:43:49.094Z,4.03
2018-05-21T13:46:17.562Z,4.93
2018-05-21T13:48:45.999Z,3.80
2018-05-21T13:51:14.455Z,4.80
2018-05-21T13:53:42.924Z,4.63
2018-05-21T13:56:12.329Z,4.80
2018-05-21T13:58:40.937Z,4.67
2018-05-21T14:01:09.378Z,3.83
2018-05-21T14:03:37.774Z,4.33
2018-05-21T14:06:06.246Z,3.53
2018-05-21T14:08:34.701Z,4.10
2018-05-21T14:11:03.119Z,4.10
2018-05-21T14:13:31.644Z,4.33
2018-05-21T14:16:00.103Z,4.40
2018-05-21T14:18:28.560Z,4.50
2018-05-21T14:20:56.964Z,4.33
2018-05-21T14:23:25.358Z,3.97
2018-05-21T14:25:53.765Z,3.60
2018-05-21T14:28:22.316Z,4.03
2018-05-21T14:30:50.811Z,3.70
2018-05-21T14:33:19.369Z,4.87
2018-05-21T14:35:47.948Z,4.00
2018-05-21T14:38:18.420Z,4.20
2018-05-21T14:40:46.817Z,3.70
2018-05-21T14:43:15.260Z,4.03
2018-05-21T14:45:43.737Z,4.00
2018-05-21T14:48:12.101Z,3.70
2018-05-21T14:50:40.470Z,3.73
2018-05-21T14:53:08.947Z,3.80
2018-05-21T14:55:37.393Z,4.00
2018-05-21T14:58:05.895Z,4.17
2018-05-21T15:00:35.321Z,4.17
2018-05-21T15:03:03.738Z,4.13
2018-05-21T15:05:32.201Z,3.73
2018-05-21T15:08:00.576Z,3.50
2018-05-21T15:10:29.000Z,4.03
2018-05-21T15:12:57.523Z,3.23
2018-05-21T15:15:25.929Z,3.60
2018-05-21T15:17:54.495Z,4.10
2018-05-21T15:20:22.934Z,4.00
2018-05-21T15:22:51.586Z,3.80
2018-05-21T15:25:20.254Z,3.20
2018-05-21T15:27:49.337Z,3.57
2018-05-21T15:30:17.757Z,4.83
2018-05-21T15:32:46.210Z,4.13
2018-05-21T15:35:14.568Z,3.90
2018-05-21T15:37:42.928Z,3.87
2018-05-21T15:40:11.358Z,3.60
2018-05-21T15:42:39.713Z,4.17
2018-05-21T15:45:08.134Z,4.10
2018-05-21T15:47:36.526Z,4.07
2018-05-21T15:50:04.867Z,3.73
2018-05-21T15:52:33.219Z,3.83
2018-05-21T15:55:02.181Z,4.10
2018-05-21T15:57:31.098Z,4.20
2018-05-21T15:59:59.468Z,3.70
2018-05-21T16:02:27.810Z,4.00
2018-05-21T16:04:56.193Z,3.87
2018-05-21T16:07:24.548Z,3.60
2018-05-21T16:09:53.030Z,4.47
2018-05-21T16:12:21.387Z,3.97
2018-05-21T16:14:49.813Z,3.90
2018-05-21T16:17:18.150Z,3.73
2018-05-21T16:19:46.522Z,4.40
2018-05-21T16:22:14.875Z,3.77
2018-05-21T16:24:43.252Z,3.63
2018-05-21T16:27:11.679Z,3.87
2018-05-21T16:29:40.029Z,3.90
2018-05-21T16:32:08.380Z,4.37
2018-05-21T16:34:36.725Z,3.63
2018-05-21T16:37:05.079Z,3.43
2018-05-21T16:39:33.428Z,4.40
2018-05-21T16:42:01.786Z,3.60
2018-05-21T16:44:30.200Z,3.80
2018-05-21T16:46:58.561Z,3.60
2018-05-21T16:49:27.280Z,3.73
2018-05-21T16:51:55.972Z,3.63
2018-05-21T16:54:24.456Z,3.67
2018-05-21T16:56:53.846Z,3.87
2018-05-21T16:59:22.262Z,4.87
2018-05-21T17:01:50.610Z,5.53
2018-05-21T17:04:18.982Z,4.07
2018-05-21T17:06:47.402Z,4.60
2018-05-21T17:09:15.740Z,4.60
2018-05-21T17:11:44.086Z,3.73
2018-05-21T17:14:12.440Z,3.80
2018-05-21T17:16:40.822Z,4.40
2018-05-21T17:19:09.230Z,4.07
2018-05-21T17:21:37.654Z,3.67
2018-05-21T17:24:06.941Z,4.10
2018-05-21T17:26:35.296Z,4.90
2018-05-21T17:29:03.675Z,4.10
2018-05-21T17:31:32.137Z,4.27
2018-05-21T17:34:00.505Z,4.03
2018-05-21T17:36:28.887Z,4.23
2018-05-21T17:38:57.253Z,3.90
2018-05-21T17:41:25.620Z,4.10
2018-05-21T17:43:54.141Z,4.00
2018-05-21T17:46:23.190Z,4.20
2018-05-21T17:48:51.753Z,4.00
2018-05-21T17:51:20.153Z,3.80
2018-05-21T17:53:48.536Z,3.73
2018-05-21T17:56:16.882Z,3.93
2018-05-21T17:58:45.216Z,3.80
2018-05-21T18:01:13.635Z,3.70
2018-05-21T18:03:42.061Z,4.10
2018-05-21T18:06:10.337Z,4.50
2018-05-21T18:08:38.696Z,4.10
2018-05-21T18:11:07.057Z,3.77
2018-05-21T18:13:35.448Z,4.13
2018-05-21T18:16:03.799Z,4.30
2018-05-21T18:18:32.164Z,3.90
2018-05-21T18:21:00.560Z,3.67
2018-05-21T18:23:28.899Z,3.90
2018-05-21T18:25:57.235Z,3.93
2018-05-21T18:28:25.580Z,3.97
2018-05-21T18:30:53.981Z,4.23
2018-05-21T18:33:22.960Z,4.23
2018-05-21T18:35:51.444Z,4.03
2018-05-21T18:38:19.794Z,3.90
2018-05-21T18:40:48.267Z,3.50
2018-05-21T18:43:16.711Z,4.53
2018-05-21T18:45:45.050Z,3.70
2018-05-21T18:48:13.613Z,3.67
2018-05-21T18:50:41.977Z,4.70
2018-05-21T18:53:10.400Z,4.37
2018-05-21T18:55:38.804Z,4.00
2018-05-21T18:58:07.341Z,3.97
2018-05-21T19:00:36.440Z,4.50
2018-05-21T19:03:04.888Z,4.30
2018-05-21T19:05:33.366Z,4.30
2018-05-21T19:08:01.766Z,4.00
2018-05-21T19:10:30.154Z,3.80
2018-05-21T19:12:58.593Z,4.37
2018-05-21T19:15:26.986Z,4.03
2018-05-21T19:17:55.341Z,3.80
2018-05-21T19:20:23.711Z,4.20
2018-05-21T19:22:52.157Z,3.83
2018-05-21T19:27:55.014Z,4.47
2018-05-21T19:30:23.385Z,4.60
2018-05-21T19:32:51.729Z,4.27
2018-05-21T19:35:20.077Z,4.30
2018-05-21T19:37:49.358Z,4.40
2018-05-21T19:40:17.788Z,3.90
2018-05-21T19:42:46.210Z,4.03
2018-05-21T19:45:14.556Z,4.00
2018-05-21T19:47:42.952Z,4.70
2018-05-21T19:50:11.390Z,4.30
2018-05-21T19:52:39.785Z,4.47
2018-05-21T19:55:08.179Z,4.30
2018-05-21T19:57:36.744Z,3.87
2018-05-21T20:00:05.323Z,4.10
2018-05-21T20:02:33.913Z,4.20
2018-05-21T20:05:02.358Z,3.60
2018-05-21T20:07:30.784Z,4.50
2018-05-21T20:09:59.168Z,3.70
2018-05-21T20:12:27.581Z,3.57
2018-05-21T20:14:56.004Z,4.50
2018-05-21T20:17:24.417Z,4.57
2018-05-21T20:19:52.899Z,3.90
2018-05-21T20:22:21.280Z,4.03
2018-05-21T20:24:49.660Z,4.10
2018-05-21T20:27:18.041Z,4.00
2018-05-21T20:29:46.489Z,4.10
2018-05-21T20:32:14.928Z,4.13
2018-05-21T20:34:43.278Z,3.90
2018-05-21T20:37:11.640Z,3.63
2018-05-21T20:39:40.005Z,3.80
2018-05-21T20:42:08.435Z,3.43
2018-05-21T20:44:36.855Z,4.00
2018-05-21T20:47:07.158Z,4.00
2018-05-21T20:49:35.549Z,3.80
2018-05-21T20:52:07.335Z,4.77
2018-05-21T20:54:35.995Z,4.30
2018-05-21T20:57:04.509Z,3.77
2018-05-21T20:59:32.938Z,4.57
2018-05-21T21:02:01.312Z,3.90
2018-05-21T21:04:29.761Z,3.80
2018-05-21T21:06:58.213Z,4.13
2018-05-21T21:09:26.590Z,3.70
2018-05-21T21:11:54.936Z,4.80
2018-05-21T21:14:38.275Z,4.07
2018-05-21T21:17:08.789Z,4.13
2018-05-21T21:19:37.812Z,4.23
2018-05-21T21:22:06.536Z,4.60
2018-05-21T21:24:35.484Z,3.83
2018-05-21T21:27:04.226Z,4.20
2018-05-21T21:29:34.524Z,3.90
2018-05-21T21:32:02.881Z,4.30
2018-05-21T21:34:31.279Z,4.40
2018-05-21T21:36:59.652Z,3.97
2018-05-21T21:39:28.061Z,3.87
2018-05-21T21:41:56.395Z,4.50
2018-05-21T21:44:24.803Z,4.10
2018-05-21T21:46:53.206Z,4.67
2018-05-21T21:49:21.565Z,4.30
2018-05-21T21:51:49.895Z,4.70
2018-05-21T21:54:18.312Z,4.53
2018-05-21T21:56:48.618Z,4.57
2018-05-21T21:59:17.065Z,5.00
2018-05-21T22:01:45.626Z,3.93
2018-05-21T22:04:14.039Z,4.10
2018-05-21T22:06:42.451Z,4.50
2018-05-21T22:09:11.025Z,4.20
2018-05-21T22:11:39.336Z,4.70
2018-05-21T22:14:07.917Z,4.00
2018-05-21T22:16:37.497Z,4.50
2018-05-21T22:19:06.594Z,4.90
2018-05-21T22:21:35.137Z,4.10
2018-05-21T22:24:03.507Z,4.40
2018-05-21T22:26:31.878Z,4.27
2018-05-21T22:29:00.474Z,4.63
2018-05-21T22:31:28.873Z,4.67
2018-05-21T22:33:57.452Z,3.97
2018-05-21T22:36:25.900Z,4.60
2018-05-21T22:38:54.217Z,4.80
2018-05-21T22:41:22.682Z,4.50
2018-05-21T22:43:51.141Z,4.50
2018-05-21T22:46:19.839Z,4.00
2018-05-21T22:48:48.211Z,3.97
2018-05-21T22:51:16.605Z,3.93
2018-05-21T22:53:44.964Z,4.23
2018-05-21T22:56:13.357Z,4.20
2018-05-21T22:58:41.721Z,4.80
2018-05-21T23:01:10.077Z,4.57
2018-05-21T23:03:38.501Z,4.57
2018-05-21T23:06:06.862Z,4.70
2018-05-21T23:08:35.291Z,4.27
2018-05-21T23:11:03.633Z,4.60
2018-05-21T23:13:31.972Z,4.73
2018-05-21T23:16:00.415Z,4.53
2018-05-21T23:18:28.872Z,4.33
2018-05-21T23:20:57.264Z,4.30
2018-05-21T23:23:25.705Z,4.57
2018-05-21T23:25:54.082Z,4.17
2018-05-21T23:28:22.434Z,4.80
2018-05-21T23:30:50.805Z,4.20
2018-05-21T23:33:19.209Z,5.93
2018-05-21T23:35:47.562Z,4.30
2018-05-21T23:38:15.966Z,4.83
2018-05-21T23:40:44.352Z,4.80
2018-05-21T23:43:12.735Z,4.80
2018-05-21T23:45:41.172Z,4.80
2018-05-21T23:48:09.537Z,4.13
2018-05-21T23:50:37.893Z,4.47
2018-05-21T23:53:06.268Z,3.97
2018-05-21T23:55:34.613Z,4.73
